sensor_id;sensor_type;location;lat;lon;timestamp;temperature;humidity
15625;DHT22;7912;51.376;6.126;2022-07-29T00:02:12;22.80;77.20
15625;DHT22;7912;51.376;6.126;2022-07-29T00:05:02;22.80;77.20
15625;DHT22;7912;51.376;6.126;2022-07-29T00:07:41;22.80;77.50
15625;DHT22;7912;51.376;6.126;2022-07-29T00:10:09;22.80;77.20
15625;DHT22;7912;51.376;6.126;2022-07-29T00:16:26;22.80;77.70
15625;DHT22;7912;51.376;6.126;2022-07-29T00:19:16;22.80;77.20
15625;DHT22;7912;51.376;6.126;2022-07-29T00:22:20;22.70;77.30
15625;DHT22;7912;51.376;6.126;2022-07-29T00:25:07;22.70;77.30
15625;DHT22;7912;51.376;6.126;2022-07-29T00:27:49;22.70;77.20
15625;DHT22;7912;51.376;6.126;2022-07-29T00:30:16;22.70;77.50
15625;DHT22;7912;51.376;6.126;2022-07-29T00:32:53;22.70;77.50
15625;DHT22;7912;51.376;6.126;2022-07-29T00:35:20;22.70;77.60
15625;DHT22;7912;51.376;6.126;2022-07-29T00:38:35;22.60;77.60
15625;DHT22;7912;51.376;6.126;2022-07-29T00:41:08;22.60;77.50
15625;DHT22;7912;51.376;6.126;2022-07-29T00:43:46;22.60;77.60
15625;DHT22;7912;51.376;6.126;2022-07-29T00:46:20;22.60;77.40
15625;DHT22;7912;51.376;6.126;2022-07-29T00:57:04;22.60;78.20
15625;DHT22;7912;51.376;6.126;2022-07-29T01:03:24;22.50;78.50
15625;DHT22;7912;51.376;6.126;2022-07-29T01:05:58;22.50;78.60
15625;DHT22;7912;51.376;6.126;2022-07-29T01:08:56;22.40;78.80
15625;DHT22;7912;51.376;6.126;2022-07-29T01:12:18;22.40;78.90
15625;DHT22;7912;51.376;6.126;2022-07-29T01:14:59;22.40;79.20
15625;DHT22;7912;51.376;6.126;2022-07-29T01:18:46;22.40;79.10
15625;DHT22;7912;51.376;6.126;2022-07-29T01:21:59;22.40;79.40
15625;DHT22;7912;51.376;6.126;2022-07-29T01:29:47;22.40;81.30
15625;DHT22;7912;51.376;6.126;2022-07-29T01:33:53;22.30;83.50
15625;DHT22;7912;51.376;6.126;2022-07-29T01:40:11;22.10;85.30
15625;DHT22;7912;51.376;6.126;2022-07-29T01:43:40;22.10;85.70
15625;DHT22;7912;51.376;6.126;2022-07-29T01:46:52;22.00;87.20
15625;DHT22;7912;51.376;6.126;2022-07-29T01:50:10;21.90;88.80
15625;DHT22;7912;51.376;6.126;2022-07-29T01:56:21;21.60;90.40
15625;DHT22;7912;51.376;6.126;2022-07-29T02:03:07;21.30;90.90
15625;DHT22;7912;51.376;6.126;2022-07-29T02:05:47;21.20;91.70
15625;DHT22;7912;51.376;6.126;2022-07-29T02:08:38;21.10;92.30
15625;DHT22;7912;51.376;6.126;2022-07-29T02:11:37;21.00;92.80
15625;DHT22;7912;51.376;6.126;2022-07-29T02:14:09;20.90;94.00
15625;DHT22;7912;51.376;6.126;2022-07-29T02:16:42;20.80;94.80
15625;DHT22;7912;51.376;6.126;2022-07-29T02:19:13;20.60;95.40
15625;DHT22;7912;51.376;6.126;2022-07-29T02:21:44;20.50;96.10
15625;DHT22;7912;51.376;6.126;2022-07-29T02:24:14;20.40;96.40
15625;DHT22;7912;51.376;6.126;2022-07-29T02:26:44;20.30;96.90
15625;DHT22;7912;51.376;6.126;2022-07-29T02:29:13;20.30;97.30
15625;DHT22;7912;51.376;6.126;2022-07-29T02:31:44;20.20;97.80
15625;DHT22;7912;51.376;6.126;2022-07-29T02:34:15;20.10;98.50
15625;DHT22;7912;51.376;6.126;2022-07-29T02:36:46;20.10;98.90
15625;DHT22;7912;51.376;6.126;2022-07-29T02:39:15;20.10;99.20
15625;DHT22;7912;51.376;6.126;2022-07-29T02:41:47;20.00;99.40
15625;DHT22;7912;51.376;6.126;2022-07-29T02:44:20;20.00;99.90
15625;DHT22;7912;51.376;6.126;2022-07-29T02:47:01;20.00;99.90
15625;DHT22;7912;51.376;6.126;2022-07-29T02:53:00;19.90;99.90
15625;DHT22;7912;51.376;6.126;2022-07-29T02:55:56;19.90;99.90
15625;DHT22;7912;51.376;6.126;2022-07-29T02:58:42;19.80;99.90
15625;DHT22;7912;51.376;6.126;2022-07-29T03:01:21;19.80;99.90
15625;DHT22;7912;51.376;6.126;2022-07-29T03:03:52;19.80;99.90
15625;DHT22;7912;51.376;6.126;2022-07-29T03:06:23;19.70;99.90
15625;DHT22;7912;51.376;6.126;2022-07-29T03:09:04;19.70;99.90
15625;DHT22;7912;51.376;6.126;2022-07-29T03:11:40;19.70;99.90
15625;DHT22;7912;51.376;6.126;2022-07-29T03:14:18;19.60;99.90
15625;DHT22;7912;51.376;6.126;2022-07-29T03:16:47;19.60;99.90
15625;DHT22;7912;51.376;6.126;2022-07-29T03:19:16;19.60;99.90
15625;DHT22;7912;51.376;6.126;2022-07-29T03:21:45;19.60;99.90
15625;DHT22;7912;51.376;6.126;2022-07-29T03:24:34;19.60;99.90
15625;DHT22;7912;51.376;6.126;2022-07-29T03:27:03;19.60;99.90
15625;DHT22;7912;51.376;6.126;2022-07-29T03:29:31;19.60;99.90
15625;DHT22;7912;51.376;6.126;2022-07-29T03:32:02;19.60;99.90
15625;DHT22;7912;51.376;6.126;2022-07-29T03:34:35;19.60;99.90
15625;DHT22;7912;51.376;6.126;2022-07-29T03:37:05;19.60;99.90
15625;DHT22;7912;51.376;6.126;2022-07-29T03:39:38;19.70;99.90
15625;DHT22;7912;51.376;6.126;2022-07-29T03:42:11;19.70;99.90
15625;DHT22;7912;51.376;6.126;2022-07-29T03:44:43;19.70;99.90
15625;DHT22;7912;51.376;6.126;2022-07-29T03:47:13;19.70;99.90
15625;DHT22;7912;51.376;6.126;2022-07-29T03:49:48;19.60;99.90
15625;DHT22;7912;51.376;6.126;2022-07-29T03:52:18;19.60;99.90
15625;DHT22;7912;51.376;6.126;2022-07-29T03:54:47;19.60;99.90
15625;DHT22;7912;51.376;6.126;2022-07-29T03:57:16;19.60;99.90
15625;DHT22;7912;51.376;6.126;2022-07-29T03:59:45;19.60;99.90
15625;DHT22;7912;51.376;6.126;2022-07-29T04:02:13;19.60;99.90
15625;DHT22;7912;51.376;6.126;2022-07-29T04:04:47;19.60;99.90
15625;DHT22;7912;51.376;6.126;2022-07-29T04:07:15;19.50;99.90
15625;DHT22;7912;51.376;6.126;2022-07-29T04:09:42;19.50;99.90
15625;DHT22;7912;51.376;6.126;2022-07-29T04:12:10;19.50;99.90
15625;DHT22;7912;51.376;6.126;2022-07-29T04:14:37;19.40;99.90
15625;DHT22;7912;51.376;6.126;2022-07-29T04:17:05;19.40;99.90
15625;DHT22;7912;51.376;6.126;2022-07-29T04:19:33;19.30;99.90
15625;DHT22;7912;51.376;6.126;2022-07-29T04:22:01;19.30;99.90
15625;DHT22;7912;51.376;6.126;2022-07-29T04:24:28;19.30;99.90
15625;DHT22;7912;51.376;6.126;2022-07-29T04:26:56;19.30;99.90
15625;DHT22;7912;51.376;6.126;2022-07-29T04:29:23;19.30;99.90
15625;DHT22;7912;51.376;6.126;2022-07-29T04:31:50;19.20;99.90
15625;DHT22;7912;51.376;6.126;2022-07-29T04:34:18;19.20;99.90
15625;DHT22;7912;51.376;6.126;2022-07-29T04:36:46;19.20;99.90
15625;DHT22;7912;51.376;6.126;2022-07-29T04:39:14;19.10;99.90
15625;DHT22;7912;51.376;6.126;2022-07-29T04:41:48;19.10;99.90
15625;DHT22;7912;51.376;6.126;2022-07-29T04:44:20;19.10;99.90
15625;DHT22;7912;51.376;6.126;2022-07-29T04:46:54;19.10;99.90
15625;DHT22;7912;51.376;6.126;2022-07-29T04:49:21;19.10;99.90
15625;DHT22;7912;51.376;6.126;2022-07-29T04:51:49;19.10;99.90
15625;DHT22;7912;51.376;6.126;2022-07-29T04:54:17;19.10;99.90
15625;DHT22;7912;51.376;6.126;2022-07-29T04:56:45;19.10;99.90
15625;DHT22;7912;51.376;6.126;2022-07-29T04:59:13;19.10;99.90
15625;DHT22;7912;51.376;6.126;2022-07-29T05:01:40;19.10;99.90
15625;DHT22;7912;51.376;6.126;2022-07-29T05:04:08;19.10;99.90
15625;DHT22;7912;51.376;6.126;2022-07-29T05:06:35;19.20;99.90
15625;DHT22;7912;51.376;6.126;2022-07-29T05:09:03;19.10;99.90
15625;DHT22;7912;51.376;6.126;2022-07-29T05:11:30;19.10;99.90
15625;DHT22;7912;51.376;6.126;2022-07-29T05:13:58;19.20;99.90
15625;DHT22;7912;51.376;6.126;2022-07-29T05:16:25;19.10;99.90
15625;DHT22;7912;51.376;6.126;2022-07-29T05:18:53;19.10;99.90
15625;DHT22;7912;51.376;6.126;2022-07-29T05:21:21;19.10;99.90
15625;DHT22;7912;51.376;6.126;2022-07-29T05:23:49;19.10;99.90
15625;DHT22;7912;51.376;6.126;2022-07-29T05:26:16;19.10;99.90
15625;DHT22;7912;51.376;6.126;2022-07-29T05:28:43;19.00;99.90
15625;DHT22;7912;51.376;6.126;2022-07-29T05:31:11;19.00;99.90
15625;DHT22;7912;51.376;6.126;2022-07-29T05:33:38;19.00;99.90
15625;DHT22;7912;51.376;6.126;2022-07-29T05:36:07;19.00;99.90
15625;DHT22;7912;51.376;6.126;2022-07-29T05:38:35;19.00;99.90
15625;DHT22;7912;51.376;6.126;2022-07-29T05:41:04;19.00;99.90
15625;DHT22;7912;51.376;6.126;2022-07-29T05:43:35;19.00;99.90
15625;DHT22;7912;51.376;6.126;2022-07-29T05:46:05;19.00;99.90
15625;DHT22;7912;51.376;6.126;2022-07-29T05:48:33;19.00;99.90
15625;DHT22;7912;51.376;6.126;2022-07-29T05:51:02;19.00;99.90
15625;DHT22;7912;51.376;6.126;2022-07-29T05:53:29;19.10;99.90
15625;DHT22;7912;51.376;6.126;2022-07-29T05:55:57;19.10;99.90
15625;DHT22;7912;51.376;6.126;2022-07-29T05:58:24;19.10;99.90
15625;DHT22;7912;51.376;6.126;2022-07-29T06:00:51;19.10;99.90
15625;DHT22;7912;51.376;6.126;2022-07-29T06:03:19;19.10;99.90
15625;DHT22;7912;51.376;6.126;2022-07-29T06:05:47;19.10;99.90
15625;DHT22;7912;51.376;6.126;2022-07-29T06:08:14;19.10;99.90
15625;DHT22;7912;51.376;6.126;2022-07-29T06:10:42;19.20;99.90
15625;DHT22;7912;51.376;6.126;2022-07-29T06:13:09;19.20;99.90
15625;DHT22;7912;51.376;6.126;2022-07-29T06:15:37;19.20;99.90
15625;DHT22;7912;51.376;6.126;2022-07-29T06:18:04;19.20;99.90
15625;DHT22;7912;51.376;6.126;2022-07-29T06:20:39;19.20;99.90
15625;DHT22;7912;51.376;6.126;2022-07-29T06:23:06;19.20;99.90
15625;DHT22;7912;51.376;6.126;2022-07-29T06:25:35;19.20;99.90
15625;DHT22;7912;51.376;6.126;2022-07-29T06:28:03;19.20;99.90
15625;DHT22;7912;51.376;6.126;2022-07-29T06:30:31;19.20;99.90
15625;DHT22;7912;51.376;6.126;2022-07-29T06:32:58;19.20;99.90
15625;DHT22;7912;51.376;6.126;2022-07-29T06:35:27;19.10;99.90
15625;DHT22;7912;51.376;6.126;2022-07-29T06:38:07;19.10;99.90
15625;DHT22;7912;51.376;6.126;2022-07-29T06:41:13;19.00;99.90
15625;DHT22;7912;51.376;6.126;2022-07-29T06:43:44;19.00;99.90
15625;DHT22;7912;51.376;6.126;2022-07-29T06:46:21;18.90;99.90
15625;DHT22;7912;51.376;6.126;2022-07-29T06:48:50;18.90;99.90
15625;DHT22;7912;51.376;6.126;2022-07-29T06:51:19;18.90;99.90
15625;DHT22;7912;51.376;6.126;2022-07-29T06:53:52;18.90;99.90
15625;DHT22;7912;51.376;6.126;2022-07-29T06:56:30;18.90;99.90
15625;DHT22;7912;51.376;6.126;2022-07-29T06:59:06;18.90;99.90
15625;DHT22;7912;51.376;6.126;2022-07-29T07:01:36;18.90;99.90
15625;DHT22;7912;51.376;6.126;2022-07-29T07:04:24;19.00;99.90
15625;DHT22;7912;51.376;6.126;2022-07-29T07:06:51;19.10;99.90
15625;DHT22;7912;51.376;6.126;2022-07-29T07:09:18;19.10;99.90
15625;DHT22;7912;51.376;6.126;2022-07-29T07:11:45;19.20;99.90
15625;DHT22;7912;51.376;6.126;2022-07-29T07:14:15;19.30;99.90
15625;DHT22;7912;51.376;6.126;2022-07-29T07:16:43;19.40;99.90
15625;DHT22;7912;51.376;6.126;2022-07-29T07:19:11;19.50;99.90
15625;DHT22;7912;51.376;6.126;2022-07-29T07:21:39;19.60;99.90
15625;DHT22;7912;51.376;6.126;2022-07-29T07:24:07;19.70;99.90
15625;DHT22;7912;51.376;6.126;2022-07-29T07:26:34;19.80;99.90
15625;DHT22;7912;51.376;6.126;2022-07-29T07:29:02;20.00;99.90
15625;DHT22;7912;51.376;6.126;2022-07-29T07:31:29;20.10;99.90
15625;DHT22;7912;51.376;6.126;2022-07-29T07:33:57;20.20;99.90
15625;DHT22;7912;51.376;6.126;2022-07-29T07:36:24;20.30;99.90
15625;DHT22;7912;51.376;6.126;2022-07-29T07:38:52;20.40;99.90
15625;DHT22;7912;51.376;6.126;2022-07-29T07:41:20;20.50;99.90
15625;DHT22;7912;51.376;6.126;2022-07-29T07:43:48;20.60;99.90
15625;DHT22;7912;51.376;6.126;2022-07-29T07:46:16;20.60;99.90
15625;DHT22;7912;51.376;6.126;2022-07-29T07:48:43;20.70;99.90
15625;DHT22;7912;51.376;6.126;2022-07-29T07:51:11;20.70;99.90
15625;DHT22;7912;51.376;6.126;2022-07-29T07:53:38;20.70;99.90
15625;DHT22;7912;51.376;6.126;2022-07-29T07:56:06;20.80;99.90
15625;DHT22;7912;51.376;6.126;2022-07-29T07:58:37;20.80;99.90
15625;DHT22;7912;51.376;6.126;2022-07-29T08:01:05;20.80;99.90
15625;DHT22;7912;51.376;6.126;2022-07-29T08:03:33;20.80;99.90
15625;DHT22;7912;51.376;6.126;2022-07-29T08:06:01;20.80;99.90
15625;DHT22;7912;51.376;6.126;2022-07-29T08:08:30;20.80;99.90
15625;DHT22;7912;51.376;6.126;2022-07-29T08:10:59;20.70;99.90
15625;DHT22;7912;51.376;6.126;2022-07-29T08:13:35;20.70;99.90
15625;DHT22;7912;51.376;6.126;2022-07-29T08:16:06;20.60;99.90
15625;DHT22;7912;51.376;6.126;2022-07-29T08:18:43;20.60;99.90
15625;DHT22;7912;51.376;6.126;2022-07-29T08:21:12;20.60;99.90
15625;DHT22;7912;51.376;6.126;2022-07-29T08:23:42;20.60;99.90
15625;DHT22;7912;51.376;6.126;2022-07-29T08:26:24;20.50;99.90
15625;DHT22;7912;51.376;6.126;2022-07-29T08:28:52;20.40;99.90
15625;DHT22;7912;51.376;6.126;2022-07-29T08:31:19;20.40;99.90
15625;DHT22;7912;51.376;6.126;2022-07-29T08:33:47;20.40;99.90
15625;DHT22;7912;51.376;6.126;2022-07-29T08:36:14;20.30;99.90
15625;DHT22;7912;51.376;6.126;2022-07-29T08:38:42;20.30;99.90
15625;DHT22;7912;51.376;6.126;2022-07-29T08:41:10;20.30;99.90
15625;DHT22;7912;51.376;6.126;2022-07-29T08:43:39;20.20;99.90
15625;DHT22;7912;51.376;6.126;2022-07-29T08:46:08;20.30;99.90
15625;DHT22;7912;51.376;6.126;2022-07-29T08:48:36;20.30;99.90
15625;DHT22;7912;51.376;6.126;2022-07-29T08:51:05;20.40;99.90
15625;DHT22;7912;51.376;6.126;2022-07-29T08:53:36;20.50;99.90
15625;DHT22;7912;51.376;6.126;2022-07-29T08:56:05;20.60;99.90
15625;DHT22;7912;51.376;6.126;2022-07-29T08:58:34;20.70;99.90
15625;DHT22;7912;51.376;6.126;2022-07-29T09:01:04;20.90;99.90
15625;DHT22;7912;51.376;6.126;2022-07-29T09:03:37;21.00;99.90
15625;DHT22;7912;51.376;6.126;2022-07-29T09:06:07;21.10;99.90
15625;DHT22;7912;51.376;6.126;2022-07-29T09:08:34;21.30;99.90
15625;DHT22;7912;51.376;6.126;2022-07-29T09:11:02;21.50;99.90
15625;DHT22;7912;51.376;6.126;2022-07-29T09:13:31;21.80;99.90
15625;DHT22;7912;51.376;6.126;2022-07-29T09:15:59;22.00;99.90
15625;DHT22;7912;51.376;6.126;2022-07-29T09:21:15;22.70;99.90
15625;DHT22;7912;51.376;6.126;2022-07-29T09:24:11;23.10;99.90
15625;DHT22;7912;51.376;6.126;2022-07-29T09:26:44;23.60;99.90
15625;DHT22;7912;51.376;6.126;2022-07-29T09:29:17;24.00;99.90
15625;DHT22;7912;51.376;6.126;2022-07-29T09:31:51;24.30;99.90
15625;DHT22;7912;51.376;6.126;2022-07-29T09:34:27;24.70;99.90
15625;DHT22;7912;51.376;6.126;2022-07-29T09:36:57;25.10;99.90
15625;DHT22;7912;51.376;6.126;2022-07-29T09:39:29;25.40;99.90
15625;DHT22;7912;51.376;6.126;2022-07-29T09:42:05;25.70;99.20
15625;DHT22;7912;51.376;6.126;2022-07-29T09:44:49;26.00;99.00
15625;DHT22;7912;51.376;6.126;2022-07-29T09:47:18;26.30;97.60
15625;DHT22;7912;51.376;6.126;2022-07-29T09:49:58;26.50;96.30
15625;DHT22;7912;51.376;6.126;2022-07-29T09:52:28;26.70;95.50
15625;DHT22;7912;51.376;6.126;2022-07-29T09:55:09;26.80;95.60
15625;DHT22;7912;51.376;6.126;2022-07-29T09:57:44;26.90;94.90
15625;DHT22;7912;51.376;6.126;2022-07-29T10:00:17;26.90;95.20
15625;DHT22;7912;51.376;6.126;2022-07-29T10:02:47;27.00;94.20
15625;DHT22;7912;51.376;6.126;2022-07-29T10:05:23;26.90;94.20
15625;DHT22;7912;51.376;6.126;2022-07-29T10:07:54;26.90;93.30
15625;DHT22;7912;51.376;6.126;2022-07-29T10:10:30;26.80;93.80
15625;DHT22;7912;51.376;6.126;2022-07-29T10:13:02;26.70;94.30
15625;DHT22;7912;51.376;6.126;2022-07-29T10:15:37;26.70;94.30
15625;DHT22;7912;51.376;6.126;2022-07-29T10:18:09;26.90;94.30
15625;DHT22;7912;51.376;6.126;2022-07-29T10:20:49;27.00;94.20
15625;DHT22;7912;51.376;6.126;2022-07-29T10:23:17;27.30;94.00
15625;DHT22;7912;51.376;6.126;2022-07-29T10:25:45;27.50;94.10
15625;DHT22;7912;51.376;6.126;2022-07-29T10:28:13;27.70;93.80
15625;DHT22;7912;51.376;6.126;2022-07-29T10:30:43;27.90;93.20
15625;DHT22;7912;51.376;6.126;2022-07-29T10:39:01;28.40;92.40
15625;DHT22;7912;51.376;6.126;2022-07-29T10:44:45;28.80;91.50
15625;DHT22;7912;51.376;6.126;2022-07-29T10:47:33;29.00;91.40
15625;DHT22;7912;51.376;6.126;2022-07-29T10:50:03;29.10;90.20
15625;DHT22;7912;51.376;6.126;2022-07-29T10:55:36;29.10;88.80
15625;DHT22;7912;51.376;6.126;2022-07-29T10:58:16;29.00;89.10
15625;DHT22;7912;51.376;6.126;2022-07-29T11:00:52;29.00;89.30
15625;DHT22;7912;51.376;6.126;2022-07-29T11:06:16;29.10;88.40
15625;DHT22;7912;51.376;6.126;2022-07-29T11:09:22;29.30;89.10
15625;DHT22;7912;51.376;6.126;2022-07-29T11:12:01;29.40;87.80
15625;DHT22;7912;51.376;6.126;2022-07-29T11:14:55;29.50;88.30
15625;DHT22;7912;51.376;6.126;2022-07-29T11:17:23;29.50;86.90
15625;DHT22;7912;51.376;6.126;2022-07-29T11:20:08;29.50;86.00
15625;DHT22;7912;51.376;6.126;2022-07-29T11:22:58;29.60;86.00
15625;DHT22;7912;51.376;6.126;2022-07-29T11:25:27;29.60;84.40
15625;DHT22;7912;51.376;6.126;2022-07-29T11:28:19;29.70;84.50
15625;DHT22;7912;51.376;6.126;2022-07-29T11:30:52;29.70;83.80
15625;DHT22;7912;51.376;6.126;2022-07-29T11:33:33;29.80;84.10
15625;DHT22;7912;51.376;6.126;2022-07-29T11:36:27;30.00;83.80
15625;DHT22;7912;51.376;6.126;2022-07-29T11:39:25;30.20;83.60
15625;DHT22;7912;51.376;6.126;2022-07-29T11:45:00;30.70;80.80
15625;DHT22;7912;51.376;6.126;2022-07-29T11:47:53;30.80;80.30
15625;DHT22;7912;51.376;6.126;2022-07-29T11:50:35;31.00;79.70
15625;DHT22;7912;51.376;6.126;2022-07-29T11:53:12;31.20;78.30
15625;DHT22;7912;51.376;6.126;2022-07-29T11:55:42;31.40;78.00
15625;DHT22;7912;51.376;6.126;2022-07-29T11:58:22;31.40;76.30
15625;DHT22;7912;51.376;6.126;2022-07-29T12:00:52;31.40;75.20
15625;DHT22;7912;51.376;6.126;2022-07-29T12:03:26;31.30;75.90
15625;DHT22;7912;51.376;6.126;2022-07-29T12:06:01;31.20;75.80
15625;DHT22;7912;51.376;6.126;2022-07-29T12:08:41;31.20;76.70
15625;DHT22;7912;51.376;6.126;2022-07-29T12:11:20;31.20;76.00
15625;DHT22;7912;51.376;6.126;2022-07-29T12:13:52;31.20;75.50
15625;DHT22;7912;51.376;6.126;2022-07-29T12:16:21;31.20;75.60
15625;DHT22;7912;51.376;6.126;2022-07-29T12:18:59;31.20;74.70
15625;DHT22;7912;51.376;6.126;2022-07-29T12:21:35;31.40;73.60
15625;DHT22;7912;51.376;6.126;2022-07-29T12:24:19;31.50;73.30
15625;DHT22;7912;51.376;6.126;2022-07-29T12:26:53;31.60;72.80
15625;DHT22;7912;51.376;6.126;2022-07-29T12:29:28;31.70;72.10
15625;DHT22;7912;51.376;6.126;2022-07-29T12:32:02;31.60;71.00
15625;DHT22;7912;51.376;6.126;2022-07-29T12:34:39;31.50;71.00
15625;DHT22;7912;51.376;6.126;2022-07-29T12:37:09;31.40;72.60
15625;DHT22;7912;51.376;6.126;2022-07-29T12:39:38;31.40;71.70
15625;DHT22;7912;51.376;6.126;2022-07-29T12:42:13;31.50;72.00
15625;DHT22;7912;51.376;6.126;2022-07-29T12:44:48;31.60;69.30
15625;DHT22;7912;51.376;6.126;2022-07-29T12:47:19;31.80;68.30
15625;DHT22;7912;51.376;6.126;2022-07-29T12:49:47;32.00;67.80
15625;DHT22;7912;51.376;6.126;2022-07-29T12:52:30;32.20;67.90
15625;DHT22;7912;51.376;6.126;2022-07-29T12:54:59;32.40;67.30
15625;DHT22;7912;51.376;6.126;2022-07-29T12:57:28;32.60;67.60
15625;DHT22;7912;51.376;6.126;2022-07-29T13:02:27;33.10;64.10
15625;DHT22;7912;51.376;6.126;2022-07-29T13:04:59;33.30;63.20
15625;DHT22;7912;51.376;6.126;2022-07-29T13:07:29;33.50;62.50
15625;DHT22;7912;51.376;6.126;2022-07-29T13:10:20;33.60;63.00
15625;DHT22;7912;51.376;6.126;2022-07-29T13:13:04;33.80;62.10
15625;DHT22;7912;51.376;6.126;2022-07-29T13:15:34;34.00;61.10
15625;DHT22;7912;51.376;6.126;2022-07-29T13:18:02;34.10;61.20
15625;DHT22;7912;51.376;6.126;2022-07-29T13:20:31;34.30;61.00
15625;DHT22;7912;51.376;6.126;2022-07-29T13:23:00;34.50;60.70
15625;DHT22;7912;51.376;6.126;2022-07-29T13:25:30;34.60;60.40
15625;DHT22;7912;51.376;6.126;2022-07-29T13:27:59;34.70;60.80
15625;DHT22;7912;51.376;6.126;2022-07-29T13:30:27;34.80;61.00
15625;DHT22;7912;51.376;6.126;2022-07-29T13:32:55;34.80;59.80
15625;DHT22;7912;51.376;6.126;2022-07-29T13:35:23;34.90;60.20
15625;DHT22;7912;51.376;6.126;2022-07-29T13:37:50;34.90;59.40
15625;DHT22;7912;51.376;6.126;2022-07-29T13:40:22;34.80;59.60
15625;DHT22;7912;51.376;6.126;2022-07-29T13:42:49;34.80;59.10
15625;DHT22;7912;51.376;6.126;2022-07-29T13:45:17;34.70;59.50
15625;DHT22;7912;51.376;6.126;2022-07-29T13:47:44;34.70;59.80
15625;DHT22;7912;51.376;6.126;2022-07-29T13:50:15;34.70;59.20
15625;DHT22;7912;51.376;6.126;2022-07-29T13:52:42;34.70;58.90
15625;DHT22;7912;51.376;6.126;2022-07-29T13:55:10;34.70;58.70
15625;DHT22;7912;51.376;6.126;2022-07-29T13:57:37;34.70;58.20
15625;DHT22;7912;51.376;6.126;2022-07-29T14:00:05;34.70;58.50
15625;DHT22;7912;51.376;6.126;2022-07-29T14:02:33;34.70;58.30
15625;DHT22;7912;51.376;6.126;2022-07-29T14:05:01;34.80;58.50
15625;DHT22;7912;51.376;6.126;2022-07-29T14:07:34;34.80;58.80
15625;DHT22;7912;51.376;6.126;2022-07-29T14:10:01;34.90;58.80
15625;DHT22;7912;51.376;6.126;2022-07-29T14:12:29;35.00;58.10
15625;DHT22;7912;51.376;6.126;2022-07-29T14:14:57;35.00;58.00
15625;DHT22;7912;51.376;6.126;2022-07-29T14:17:24;34.80;58.20
15625;DHT22;7912;51.376;6.126;2022-07-29T14:19:52;34.70;58.20
15625;DHT22;7912;51.376;6.126;2022-07-29T14:25:26;34.70;57.70
15625;DHT22;7912;51.376;6.126;2022-07-29T14:27:54;34.70;57.80
15625;DHT22;7912;51.376;6.126;2022-07-29T14:30:24;34.80;57.50
15625;DHT22;7912;51.376;6.126;2022-07-29T14:32:52;34.80;58.10
15625;DHT22;7912;51.376;6.126;2022-07-29T14:35:19;34.80;58.10
15625;DHT22;7912;51.376;6.126;2022-07-29T14:37:46;34.80;58.10
15625;DHT22;7912;51.376;6.126;2022-07-29T14:40:14;34.80;58.00
15625;DHT22;7912;51.376;6.126;2022-07-29T14:42:41;34.70;57.70
15625;DHT22;7912;51.376;6.126;2022-07-29T14:45:09;34.70;57.80
15625;DHT22;7912;51.376;6.126;2022-07-29T14:47:38;34.60;58.00
15625;DHT22;7912;51.376;6.126;2022-07-29T14:50:07;34.70;58.00
15625;DHT22;7912;51.376;6.126;2022-07-29T14:52:34;34.80;57.60
15625;DHT22;7912;51.376;6.126;2022-07-29T14:55:04;34.90;57.80
15625;DHT22;7912;51.376;6.126;2022-07-29T14:57:46;35.00;57.00
15625;DHT22;7912;51.376;6.126;2022-07-29T15:00:14;34.90;56.90
15625;DHT22;7912;51.376;6.126;2022-07-29T15:02:42;34.90;55.50
15625;DHT22;7912;51.376;6.126;2022-07-29T15:05:28;34.70;55.50
15625;DHT22;7912;51.376;6.126;2022-07-29T15:07:56;34.70;56.00
15625;DHT22;7912;51.376;6.126;2022-07-29T15:10:23;34.70;56.70
15625;DHT22;7912;51.376;6.126;2022-07-29T15:12:53;34.80;56.80
15625;DHT22;7912;51.376;6.126;2022-07-29T15:15:21;34.90;56.50
15625;DHT22;7912;51.376;6.126;2022-07-29T15:17:49;35.00;56.70
15625;DHT22;7912;51.376;6.126;2022-07-29T15:20:17;35.20;56.80
15625;DHT22;7912;51.376;6.126;2022-07-29T15:22:45;35.40;56.70
15625;DHT22;7912;51.376;6.126;2022-07-29T15:25:12;35.50;56.50
15625;DHT22;7912;51.376;6.126;2022-07-29T15:27:40;35.60;56.50
15625;DHT22;7912;51.376;6.126;2022-07-29T15:30:14;35.50;56.00
15625;DHT22;7912;51.376;6.126;2022-07-29T15:33:01;35.50;56.30
15625;DHT22;7912;51.376;6.126;2022-07-29T15:35:30;35.60;56.30
15625;DHT22;7912;51.376;6.126;2022-07-29T15:38:01;35.70;56.00
15625;DHT22;7912;51.376;6.126;2022-07-29T15:40:46;35.80;55.70
15625;DHT22;7912;51.376;6.126;2022-07-29T15:43:16;36.00;55.90
15625;DHT22;7912;51.376;6.126;2022-07-29T15:45:44;36.20;55.70
15625;DHT22;7912;51.376;6.126;2022-07-29T15:48:31;36.40;55.60
15625;DHT22;7912;51.376;6.126;2022-07-29T15:50:59;36.60;55.40
15625;DHT22;7912;51.376;6.126;2022-07-29T15:53:26;36.70;54.90
15625;DHT22;7912;51.376;6.126;2022-07-29T15:55:54;36.80;54.80
15625;DHT22;7912;51.376;6.126;2022-07-29T15:58:24;36.80;54.00
15625;DHT22;7912;51.376;6.126;2022-07-29T16:00:52;36.80;53.60
15625;DHT22;7912;51.376;6.126;2022-07-29T16:03:19;36.80;53.80
15625;DHT22;7912;51.376;6.126;2022-07-29T16:05:48;36.80;54.00
15625;DHT22;7912;51.376;6.126;2022-07-29T16:08:16;36.70;53.40
15625;DHT22;7912;51.376;6.126;2022-07-29T16:10:44;36.60;53.50
15625;DHT22;7912;51.376;6.126;2022-07-29T16:13:13;36.40;53.10
15625;DHT22;7912;51.376;6.126;2022-07-29T16:15:46;36.20;52.40
15625;DHT22;7912;51.376;6.126;2022-07-29T16:18:29;36.00;52.40
15625;DHT22;7912;51.376;6.126;2022-07-29T16:20:57;35.70;52.40
15625;DHT22;7912;51.376;6.126;2022-07-29T16:23:25;35.50;53.00
15625;DHT22;7912;51.376;6.126;2022-07-29T16:25:54;35.10;52.80
15625;DHT22;7912;51.376;6.126;2022-07-29T16:28:26;34.90;53.30
15625;DHT22;7912;51.376;6.126;2022-07-29T16:30:55;34.50;53.80
15625;DHT22;7912;51.376;6.126;2022-07-29T16:33:23;34.20;54.30
15625;DHT22;7912;51.376;6.126;2022-07-29T16:35:51;33.90;54.70
15625;DHT22;7912;51.376;6.126;2022-07-29T16:38:19;33.80;54.60
15625;DHT22;7912;51.376;6.126;2022-07-29T16:40:46;33.70;54.60
15625;DHT22;7912;51.376;6.126;2022-07-29T16:43:14;33.60;55.10
15625;DHT22;7912;51.376;6.126;2022-07-29T16:45:41;33.40;55.30
15625;DHT22;7912;51.376;6.126;2022-07-29T16:48:15;33.40;55.80
15625;DHT22;7912;51.376;6.126;2022-07-29T16:50:44;33.30;55.90
15625;DHT22;7912;51.376;6.126;2022-07-29T16:53:12;33.40;56.00
15625;DHT22;7912;51.376;6.126;2022-07-29T16:55:39;33.50;56.00
15625;DHT22;7912;51.376;6.126;2022-07-29T16:58:09;33.60;55.80
15625;DHT22;7912;51.376;6.126;2022-07-29T17:00:39;33.70;55.40
15625;DHT22;7912;51.376;6.126;2022-07-29T17:03:10;33.70;55.30
15625;DHT22;7912;51.376;6.126;2022-07-29T17:05:39;33.50;55.30
15625;DHT22;7912;51.376;6.126;2022-07-29T17:08:22;33.30;55.30
15625;DHT22;7912;51.376;6.126;2022-07-29T17:10:50;33.00;55.50
15625;DHT22;7912;51.376;6.126;2022-07-29T17:13:17;32.80;55.80
15625;DHT22;7912;51.376;6.126;2022-07-29T17:15:45;32.70;55.80
15625;DHT22;7912;51.376;6.126;2022-07-29T17:18:12;32.60;56.00
15625;DHT22;7912;51.376;6.126;2022-07-29T17:20:40;32.60;56.10
15625;DHT22;7912;51.376;6.126;2022-07-29T17:23:10;32.50;56.30
15625;DHT22;7912;51.376;6.126;2022-07-29T17:25:38;32.50;56.50